sensor_id;sensor_type;location;lat;lon;timestamp;temperature;humidity
31799;DHT22;18374;51.136;3.502;2023-03-17T00:01:56;9.30;99.90
31799;DHT22;18374;51.136;3.502;2023-03-17T00:04:26;9.30;99.90
31799;DHT22;18374;51.136;3.502;2023-03-17T00:06:54;9.30;99.90
31799;DHT22;18374;51.136;3.502;2023-03-17T00:09:23;9.30;99.90
31799;DHT22;18374;51.136;3.502;2023-03-17T00:11:50;9.30;99.90
31799;DHT22;18374;51.136;3.502;2023-03-17T00:14:18;9.20;99.90
31799;DHT22;18374;51.136;3.502;2023-03-17T00:16:50;9.10;99.90
31799;DHT22;18374;51.136;3.502;2023-03-17T00:19:29;9.10;99.90
31799;DHT22;18374;51.136;3.502;2023-03-17T00:21:59;9.10;99.90
31799;DHT22;18374;51.136;3.502;2023-03-17T00:24:28;9.10;99.90
31799;DHT22;18374;51.136;3.502;2023-03-17T00:26:56;9.00;99.90
31799;DHT22;18374;51.136;3.502;2023-03-17T00:29:24;9.00;99.90
31799;DHT22;18374;51.136;3.502;2023-03-17T00:31:55;9.00;99.90
31799;DHT22;18374;51.136;3.502;2023-03-17T00:34:23;9.00;99.90
31799;DHT22;18374;51.136;3.502;2023-03-17T00:36:51;9.10;99.90
31799;DHT22;18374;51.136;3.502;2023-03-17T00:39:22;9.00;99.90
31799;DHT22;18374;51.136;3.502;2023-03-17T00:41:54;9.00;99.90
31799;DHT22;18374;51.136;3.502;2023-03-17T00:44:21;9.00;99.90
31799;DHT22;18374;51.136;3.502;2023-03-17T00:46:50;9.00;99.90
31799;DHT22;18374;51.136;3.502;2023-03-17T00:49:22;9.10;99.90
31799;DHT22;18374;51.136;3.502;2023-03-17T00:51:51;9.10;99.90
31799;DHT22;18374;51.136;3.502;2023-03-17T00:54:21;9.10;99.90
31799;DHT22;18374;51.136;3.502;2023-03-17T00:56:49;9.10;99.90
31799;DHT22;18374;51.136;3.502;2023-03-17T00:59:20;9.10;99.90
31799;DHT22;18374;51.136;3.502;2023-03-17T01:01:52;9.10;99.90
31799;DHT22;18374;51.136;3.502;2023-03-17T01:04:21;9.10;99.90
31799;DHT22;18374;51.136;3.502;2023-03-17T01:06:49;9.10;99.90
31799;DHT22;18374;51.136;3.502;2023-03-17T01:09:19;9.10;99.90
31799;DHT22;18374;51.136;3.502;2023-03-17T01:11:50;9.10;99.90
31799;DHT22;18374;51.136;3.502;2023-03-17T01:14:18;9.10;99.90
31799;DHT22;18374;51.136;3.502;2023-03-17T01:16:46;9.20;99.90
31799;DHT22;18374;51.136;3.502;2023-03-17T01:19:15;9.20;99.90
31799;DHT22;18374;51.136;3.502;2023-03-17T01:21:43;9.20;99.90
31799;DHT22;18374;51.136;3.502;2023-03-17T01:24:12;9.20;99.90
31799;DHT22;18374;51.136;3.502;2023-03-17T01:26:40;9.20;99.90
31799;DHT22;18374;51.136;3.502;2023-03-17T01:29:08;9.20;99.90
31799;DHT22;18374;51.136;3.502;2023-03-17T01:31:36;9.20;99.90
31799;DHT22;18374;51.136;3.502;2023-03-17T01:34:05;9.30;99.90
31799;DHT22;18374;51.136;3.502;2023-03-17T01:36:33;9.30;99.90
31799;DHT22;18374;51.136;3.502;2023-03-17T01:39:02;9.30;99.90
31799;DHT22;18374;51.136;3.502;2023-03-17T01:41:35;9.30;99.90
31799;DHT22;18374;51.136;3.502;2023-03-17T01:44:04;9.30;99.90
31799;DHT22;18374;51.136;3.502;2023-03-17T01:46:35;9.30;99.90
31799;DHT22;18374;51.136;3.502;2023-03-17T01:52:10;9.30;99.90
31799;DHT22;18374;51.136;3.502;2023-03-17T01:54:47;9.30;99.90
31799;DHT22;18374;51.136;3.502;2023-03-17T01:57:28;9.30;99.90
31799;DHT22;18374;51.136;3.502;2023-03-17T02:00:09;9.30;99.90
31799;DHT22;18374;51.136;3.502;2023-03-17T02:02:42;9.30;99.90
31799;DHT22;18374;51.136;3.502;2023-03-17T02:05:14;9.20;99.90
31799;DHT22;18374;51.136;3.502;2023-03-17T02:07:45;9.30;99.90
31799;DHT22;18374;51.136;3.502;2023-03-17T02:10:15;9.30;99.90
31799;DHT22;18374;51.136;3.502;2023-03-17T02:12:46;9.30;99.90
31799;DHT22;18374;51.136;3.502;2023-03-17T02:15:15;9.30;99.90
31799;DHT22;18374;51.136;3.502;2023-03-17T02:17:43;9.20;99.90
31799;DHT22;18374;51.136;3.502;2023-03-17T02:22:50;9.30;99.90
31799;DHT22;18374;51.136;3.502;2023-03-17T02:25:23;9.30;99.90
31799;DHT22;18374;51.136;3.502;2023-03-17T02:27:57;9.30;99.90
31799;DHT22;18374;51.136;3.502;2023-03-17T02:30:28;9.30;99.90
31799;DHT22;18374;51.136;3.502;2023-03-17T02:32:56;9.30;99.90
31799;DHT22;18374;51.136;3.502;2023-03-17T02:35:23;9.30;99.90
31799;DHT22;18374;51.136;3.502;2023-03-17T02:37:51;9.30;99.90
31799;DHT22;18374;51.136;3.502;2023-03-17T02:40:20;9.30;99.90
31799;DHT22;18374;51.136;3.502;2023-03-17T02:42:48;9.30;99.90
31799;DHT22;18374;51.136;3.502;2023-03-17T02:45:16;9.30;99.90
31799;DHT22;18374;51.136;3.502;2023-03-17T02:47:45;9.30;99.90
31799;DHT22;18374;51.136;3.502;2023-03-17T02:50:21;9.30;99.90
31799;DHT22;18374;51.136;3.502;2023-03-17T02:52:50;9.40;99.90
31799;DHT22;18374;51.136;3.502;2023-03-17T02:55:18;9.40;99.90
31799;DHT22;18374;51.136;3.502;2023-03-17T02:57:46;9.40;99.90
31799;DHT22;18374;51.136;3.502;2023-03-17T03:00:14;9.40;99.90
31799;DHT22;18374;51.136;3.502;2023-03-17T03:02:42;9.40;99.90
31799;DHT22;18374;51.136;3.502;2023-03-17T03:05:10;9.40;99.90
31799;DHT22;18374;51.136;3.502;2023-03-17T03:07:38;9.50;99.90
31799;DHT22;18374;51.136;3.502;2023-03-17T03:10:06;9.40;99.90
31799;DHT22;18374;51.136;3.502;2023-03-17T03:12:34;9.50;99.90
31799;DHT22;18374;51.136;3.502;2023-03-17T03:15:02;9.50;99.90
31799;DHT22;18374;51.136;3.502;2023-03-17T03:17:30;9.40;99.90
31799;DHT22;18374;51.136;3.502;2023-03-17T03:19:58;9.40;99.90
31799;DHT22;18374;51.136;3.502;2023-03-17T03:22:26;9.40;99.90
31799;DHT22;18374;51.136;3.502;2023-03-17T03:24:53;9.40;99.90
31799;DHT22;18374;51.136;3.502;2023-03-17T03:27:21;9.50;99.90
31799;DHT22;18374;51.136;3.502;2023-03-17T03:29:49;9.50;99.90
31799;DHT22;18374;51.136;3.502;2023-03-17T03:32:17;9.50;99.90
31799;DHT22;18374;51.136;3.502;2023-03-17T03:34:45;9.50;99.90
31799;DHT22;18374;51.136;3.502;2023-03-17T03:37:13;9.50;99.90
31799;DHT22;18374;51.136;3.502;2023-03-17T03:39:41;9.50;99.90
31799;DHT22;18374;51.136;3.502;2023-03-17T03:42:09;9.50;99.90
31799;DHT22;18374;51.136;3.502;2023-03-17T03:44:37;9.50;99.90
31799;DHT22;18374;51.136;3.502;2023-03-17T03:47:04;9.50;99.90
31799;DHT22;18374;51.136;3.502;2023-03-17T03:49:32;9.50;99.90
31799;DHT22;18374;51.136;3.502;2023-03-17T03:52:00;9.40;99.90
31799;DHT22;18374;51.136;3.502;2023-03-17T03:54:28;9.50;99.90
31799;DHT22;18374;51.136;3.502;2023-03-17T03:56:55;9.50;99.90
31799;DHT22;18374;51.136;3.502;2023-03-17T03:59:23;9.40;99.90
31799;DHT22;18374;51.136;3.502;2023-03-17T04:01:51;9.50;99.90
31799;DHT22;18374;51.136;3.502;2023-03-17T04:04:18;9.50;99.90
31799;DHT22;18374;51.136;3.502;2023-03-17T04:06:46;9.50;99.90
31799;DHT22;18374;51.136;3.502;2023-03-17T04:09:14;9.50;99.90
31799;DHT22;18374;51.136;3.502;2023-03-17T04:11:42;9.50;99.90
31799;DHT22;18374;51.136;3.502;2023-03-17T04:14:10;9.40;99.90
31799;DHT22;18374;51.136;3.502;2023-03-17T04:16:37;9.40;99.90
31799;DHT22;18374;51.136;3.502;2023-03-17T04:19:09;9.40;99.90
31799;DHT22;18374;51.136;3.502;2023-03-17T04:21:37;9.30;99.90
31799;DHT22;18374;51.136;3.502;2023-03-17T04:24:05;9.30;99.90
31799;DHT22;18374;51.136;3.502;2023-03-17T04:26:34;9.30;99.90
31799;DHT22;18374;51.136;3.502;2023-03-17T04:29:02;9.20;99.90
31799;DHT22;18374;51.136;3.502;2023-03-17T04:31:30;9.20;99.90
31799;DHT22;18374;51.136;3.502;2023-03-17T04:33:58;9.10;99.90
31799;DHT22;18374;51.136;3.502;2023-03-17T04:36:25;9.00;99.90
31799;DHT22;18374;51.136;3.502;2023-03-17T04:38:53;9.00;99.90
31799;DHT22;18374;51.136;3.502;2023-03-17T04:41:21;8.90;99.90
31799;DHT22;18374;51.136;3.502;2023-03-17T04:43:49;8.90;99.90
31799;DHT22;18374;51.136;3.502;2023-03-17T04:46:16;8.90;99.90
31799;DHT22;18374;51.136;3.502;2023-03-17T04:48:44;8.80;99.90
31799;DHT22;18374;51.136;3.502;2023-03-17T04:51:12;8.80;99.90
31799;DHT22;18374;51.136;3.502;2023-03-17T04:53:40;8.80;99.90
31799;DHT22;18374;51.136;3.502;2023-03-17T04:56:08;8.70;99.90
31799;DHT22;18374;51.136;3.502;2023-03-17T04:58:35;8.70;99.90
31799;DHT22;18374;51.136;3.502;2023-03-17T05:01:04;8.70;99.90
31799;DHT22;18374;51.136;3.502;2023-03-17T05:03:32;8.70;99.90
31799;DHT22;18374;51.136;3.502;2023-03-17T05:06:01;8.70;99.90
31799;DHT22;18374;51.136;3.502;2023-03-17T05:08:29;8.70;99.90
31799;DHT22;18374;51.136;3.502;2023-03-17T05:10:58;8.60;99.90
31799;DHT22;18374;51.136;3.502;2023-03-17T05:13:25;8.60;99.90
31799;DHT22;18374;51.136;3.502;2023-03-17T05:15:54;8.60;99.90
31799;DHT22;18374;51.136;3.502;2023-03-17T05:18:23;8.60;99.90
31799;DHT22;18374;51.136;3.502;2023-03-17T05:20:52;8.50;99.90
31799;DHT22;18374;51.136;3.502;2023-03-17T05:23:20;8.60;99.90
31799;DHT22;18374;51.136;3.502;2023-03-17T05:25:49;8.60;99.90
31799;DHT22;18374;51.136;3.502;2023-03-17T05:28:20;8.60;99.90
31799;DHT22;18374;51.136;3.502;2023-03-17T05:30:49;8.60;99.90
31799;DHT22;18374;51.136;3.502;2023-03-17T05:33:17;8.50;99.90
31799;DHT22;18374;51.136;3.502;2023-03-17T05:35:45;8.50;99.90
31799;DHT22;18374;51.136;3.502;2023-03-17T05:38:14;8.50;99.90
31799;DHT22;18374;51.136;3.502;2023-03-17T05:40:43;8.50;99.90
31799;DHT22;18374;51.136;3.502;2023-03-17T05:43:11;8.50;99.90
31799;DHT22;18374;51.136;3.502;2023-03-17T05:45:38;8.40;99.90
31799;DHT22;18374;51.136;3.502;2023-03-17T05:48:07;8.40;99.90
31799;DHT22;18374;51.136;3.502;2023-03-17T05:50:35;8.40;99.90
31799;DHT22;18374;51.136;3.502;2023-03-17T05:53:02;8.50;99.90
31799;DHT22;18374;51.136;3.502;2023-03-17T05:55:30;8.40;99.90
31799;DHT22;18374;51.136;3.502;2023-03-17T05:57:58;8.40;99.90
31799;DHT22;18374;51.136;3.502;2023-03-17T06:00:27;8.40;99.90
31799;DHT22;18374;51.136;3.502;2023-03-17T06:02:55;8.40;99.90
31799;DHT22;18374;51.136;3.502;2023-03-17T06:05:23;8.40;99.90
31799;DHT22;18374;51.136;3.502;2023-03-17T06:07:51;8.40;99.90
31799;DHT22;18374;51.136;3.502;2023-03-17T06:10:23;8.40;99.90
31799;DHT22;18374;51.136;3.502;2023-03-17T06:12:52;8.40;99.90
31799;DHT22;18374;51.136;3.502;2023-03-17T06:15:20;8.50;99.90
31799;DHT22;18374;51.136;3.502;2023-03-17T06:17:47;8.40;99.90
31799;DHT22;18374;51.136;3.502;2023-03-17T06:20:15;8.40;99.90
31799;DHT22;18374;51.136;3.502;2023-03-17T06:22:44;8.30;99.90
31799;DHT22;18374;51.136;3.502;2023-03-17T06:25:29;8.40;99.90
31799;DHT22;18374;51.136;3.502;2023-03-17T06:27:57;8.30;99.90
31799;DHT22;18374;51.136;3.502;2023-03-17T06:30:30;8.40;99.90
31799;DHT22;18374;51.136;3.502;2023-03-17T06:33:00;8.40;99.90
31799;DHT22;18374;51.136;3.502;2023-03-17T06:35:29;8.50;99.90
31799;DHT22;18374;51.136;3.502;2023-03-17T06:37:57;8.50;99.90
31799;DHT22;18374;51.136;3.502;2023-03-17T06:40:26;8.50;99.90
31799;DHT22;18374;51.136;3.502;2023-03-17T06:42:53;8.50;99.90
31799;DHT22;18374;51.136;3.502;2023-03-17T06:45:21;8.50;99.90
31799;DHT22;18374;51.136;3.502;2023-03-17T06:47:49;8.50;99.90
31799;DHT22;18374;51.136;3.502;2023-03-17T06:50:17;8.60;99.90
31799;DHT22;18374;51.136;3.502;2023-03-17T06:52:45;8.60;99.90
31799;DHT22;18374;51.136;3.502;2023-03-17T06:55:13;8.60;99.90
31799;DHT22;18374;51.136;3.502;2023-03-17T06:57:42;8.70;99.90
31799;DHT22;18374;51.136;3.502;2023-03-17T07:00:10;8.70;99.90
31799;DHT22;18374;51.136;3.502;2023-03-17T07:02:40;8.80;99.90
31799;DHT22;18374;51.136;3.502;2023-03-17T07:05:09;8.80;99.90
31799;DHT22;18374;51.136;3.502;2023-03-17T07:07:37;8.90;99.90
31799;DHT22;18374;51.136;3.502;2023-03-17T07:10:05;8.90;99.90
31799;DHT22;18374;51.136;3.502;2023-03-17T07:12:36;9.00;99.90
31799;DHT22;18374;51.136;3.502;2023-03-17T07:15:04;9.00;99.90
31799;DHT22;18374;51.136;3.502;2023-03-17T07:17:32;9.00;99.90
31799;DHT22;18374;51.136;3.502;2023-03-17T07:20:00;9.00;99.90
31799;DHT22;18374;51.136;3.502;2023-03-17T07:22:29;9.00;99.90
31799;DHT22;18374;51.136;3.502;2023-03-17T07:24:57;9.00;99.90
31799;DHT22;18374;51.136;3.502;2023-03-17T07:27:24;9.10;99.90
31799;DHT22;18374;51.136;3.502;2023-03-17T07:29:52;9.20;99.90
31799;DHT22;18374;51.136;3.502;2023-03-17T07:32:20;9.20;99.90
31799;DHT22;18374;51.136;3.502;2023-03-17T07:34:48;9.30;99.90
31799;DHT22;18374;51.136;3.502;2023-03-17T07:37:16;9.30;99.90
31799;DHT22;18374;51.136;3.502;2023-03-17T07:39:44;9.40;99.90
31799;DHT22;18374;51.136;3.502;2023-03-17T07:42:14;9.50;99.90
31799;DHT22;18374;51.136;3.502;2023-03-17T07:44:43;9.60;99.90
31799;DHT22;18374;51.136;3.502;2023-03-17T07:47:11;9.70;99.90
31799;DHT22;18374;51.136;3.502;2023-03-17T07:49:40;9.70;99.90
31799;DHT22;18374;51.136;3.502;2023-03-17T07:52:09;9.80;99.90
31799;DHT22;18374;51.136;3.502;2023-03-17T07:54:38;9.90;99.90
31799;DHT22;18374;51.136;3.502;2023-03-17T07:57:10;10.00;99.90
31799;DHT22;18374;51.136;3.502;2023-03-17T07:59:38;10.10;99.90
31799;DHT22;18374;51.136;3.502;2023-03-17T08:02:06;10.20;99.90
31799;DHT22;18374;51.136;3.502;2023-03-17T08:04:39;10.20;99.90
31799;DHT22;18374;51.136;3.502;2023-03-17T08:07:07;10.30;99.90
31799;DHT22;18374;51.136;3.502;2023-03-17T08:09:36;10.40;99.90
31799;DHT22;18374;51.136;3.502;2023-03-17T08:12:05;10.50;99.90
31799;DHT22;18374;51.136;3.502;2023-03-17T08:14:33;10.50;99.90
31799;DHT22;18374;51.136;3.502;2023-03-17T08:17:01;10.60;99.90
31799;DHT22;18374;51.136;3.502;2023-03-17T08:19:29;10.60;99.90
31799;DHT22;18374;51.136;3.502;2023-03-17T08:21:56;10.60;99.90
31799;DHT22;18374;51.136;3.502;2023-03-17T08:24:24;10.60;99.90
31799;DHT22;18374;51.136;3.502;2023-03-17T08:26:53;10.70;99.90
31799;DHT22;18374;51.136;3.502;2023-03-17T08:29:21;10.70;99.90
31799;DHT22;18374;51.136;3.502;2023-03-17T08:31:48;10.80;99.90
31799;DHT22;18374;51.136;3.502;2023-03-17T08:34:16;10.90;99.90
31799;DHT22;18374;51.136;3.502;2023-03-17T08:36:44;10.90;99.90
31799;DHT22;18374;51.136;3.502;2023-03-17T08:39:12;11.10;99.90
31799;DHT22;18374;51.136;3.502;2023-03-17T08:41:40;11.20;99.90
31799;DHT22;18374;51.136;3.502;2023-03-17T08:44:08;11.30;99.90
31799;DHT22;18374;51.136;3.502;2023-03-17T08:46:36;11.30;99.90
31799;DHT22;18374;51.136;3.502;2023-03-17T08:49:04;11.30;99.90
31799;DHT22;18374;51.136;3.502;2023-03-17T08:51:34;11.20;99.90
31799;DHT22;18374;51.136;3.502;2023-03-17T08:54:04;11.20;99.90
31799;DHT22;18374;51.136;3.502;2023-03-17T08:56:33;11.10;99.90
31799;DHT22;18374;51.136;3.502;2023-03-17T08:59:02;11.10;99.90
31799;DHT22;18374;51.136;3.502;2023-03-17T09:01:32;11.00;99.90
31799;DHT22;18374;51.136;3.502;2023-03-17T09:04:01;11.00;99.90
31799;DHT22;18374;51.136;3.502;2023-03-17T09:06:29;11.00;99.90
31799;DHT22;18374;51.136;3.502;2023-03-17T09:08:57;11.10;99.90
31799;DHT22;18374;51.136;3.502;2023-03-17T09:11:28;11.20;99.90
31799;DHT22;18374;51.136;3.502;2023-03-17T09:13:59;11.30;99.90
31799;DHT22;18374;51.136;3.502;2023-03-17T09:16:27;11.50;99.90
31799;DHT22;18374;51.136;3.502;2023-03-17T09:18:55;11.70;99.90
31799;DHT22;18374;51.136;3.502;2023-03-17T09:21:22;11.70;99.90
31799;DHT22;18374;51.136;3.502;2023-03-17T09:23:50;11.80;99.90
31799;DHT22;18374;51.136;3.502;2023-03-17T09:26:18;11.80;99.90
31799;DHT22;18374;51.136;3.502;2023-03-17T09:28:46;11.70;99.90
31799;DHT22;18374;51.136;3.502;2023-03-17T09:31:14;11.70;99.90
31799;DHT22;18374;51.136;3.502;2023-03-17T09:33:43;11.60;99.90
31799;DHT22;18374;51.136;3.502;2023-03-17T09:36:10;11.60;99.90
31799;DHT22;18374;51.136;3.502;2023-03-17T09:38:38;11.60;99.90
31799;DHT22;18374;51.136;3.502;2023-03-17T09:56:33;11.50;99.90
31799;DHT22;18374;51.136;3.502;2023-03-17T09:59:23;11.60;99.90
31799;DHT22;18374;51.136;3.502;2023-03-17T10:02:00;11.50;99.90
31799;DHT22;18374;51.136;3.502;2023-03-17T10:04:28;11.50;99.90
31799;DHT22;18374;51.136;3.502;2023-03-17T10:07:01;11.60;99.90
31799;DHT22;18374;51.136;3.502;2023-03-17T10:12:09;11.80;99.90
31799;DHT22;18374;51.136;3.502;2023-03-17T10:15:00;11.90;99.90
31799;DHT22;18374;51.136;3.502;2023-03-17T10:17:34;12.00;99.90
31799;DHT22;18374;51.136;3.502;2023-03-17T10:22:45;12.30;99.90
31799;DHT22;18374;51.136;3.502;2023-03-17T10:25:24;12.40;99.90
31799;DHT22;18374;51.136;3.502;2023-03-17T10:30:53;12.60;99.90
31799;DHT22;18374;51.136;3.502;2023-03-17T10:33:21;13.00;99.90
31799;DHT22;18374;51.136;3.502;2023-03-17T10:35:49;13.20;99.90
31799;DHT22;18374;51.136;3.502;2023-03-17T10:38:20;13.40;99.90
31799;DHT22;18374;51.136;3.502;2023-03-17T10:40:59;13.60;99.90
31799;DHT22;18374;51.136;3.502;2023-03-17T10:59:43;14.80;99.90
31799;DHT22;18374;51.136;3.502;2023-03-17T11:05:01;14.70;99.90
31799;DHT22;18374;51.136;3.502;2023-03-17T11:07:39;14.60;99.90
31799;DHT22;18374;51.136;3.502;2023-03-17T11:10:22;14.50;99.90
31799;DHT22;18374;51.136;3.502;2023-03-17T11:12:59;14.40;99.90
31799;DHT22;18374;51.136;3.502;2023-03-17T11:15:36;14.40;99.90
31799;DHT22;18374;51.136;3.502;2023-03-17T11:18:29;14.50;99.90
31799;DHT22;18374;51.136;3.502;2023-03-17T11:21:08;14.70;99.90
31799;DHT22;18374;51.136;3.502;2023-03-17T11:23:56;14.80;99.90
31799;DHT22;18374;51.136;3.502;2023-03-17T11:27:07;15.00;99.90
31799;DHT22;18374;51.136;3.502;2023-03-17T11:32:40;15.70;99.90
31799;DHT22;18374;51.136;3.502;2023-03-17T11:35:52;16.10;99.90
31799;DHT22;18374;51.136;3.502;2023-03-17T11:38:28;16.40;99.90
31799;DHT22;18374;51.136;3.502;2023-03-17T11:49:55;16.60;99.90
31799;DHT22;18374;51.136;3.502;2023-03-17T11:52:49;16.70;99.90
31799;DHT22;18374;51.136;3.502;2023-03-17T11:58:28;16.70;99.90
31799;DHT22;18374;51.136;3.502;2023-03-17T12:01:00;16.80;99.90
31799;DHT22;18374;51.136;3.502;2023-03-17T12:03:36;16.80;99.90
31799;DHT22;18374;51.136;3.502;2023-03-17T12:08:52;16.70;99.90
31799;DHT22;18374;51.136;3.502;2023-03-17T12:11:26;16.60;99.90
31799;DHT22;18374;51.136;3.502;2023-03-17T12:14:03;16.40;99.90
31799;DHT22;18374;51.136;3.502;2023-03-17T12:17:15;16.40;99.90
31799;DHT22;18374;51.136;3.502;2023-03-17T12:22:28;16.30;99.90
31799;DHT22;18374;51.136;3.502;2023-03-17T12:25:22;16.40;99.90
31799;DHT22;18374;51.136;3.502;2023-03-17T12:27:59;16.60;99.90
31799;DHT22;18374;51.136;3.502;2023-03-17T12:30:48;16.90;99.90
31799;DHT22;18374;51.136;3.502;2023-03-17T12:36:18;17.40;99.90
31799;DHT22;18374;51.136;3.502;2023-03-17T12:38:55;17.70;99.90
31799;DHT22;18374;51.136;3.502;2023-03-17T12:55:50;19.00;99.50
31799;DHT22;18374;51.136;3.502;2023-03-17T12:58:33;18.80;99.00
31799;DHT22;18374;51.136;3.502;2023-03-17T13:04:28;17.90;99.50
31799;DHT22;18374;51.136;3.502;2023-03-17T13:07:02;18.00;99.90
31799;DHT22;18374;51.136;3.502;2023-03-17T13:26:59;19.40;97.40
31799;DHT22;18374;51.136;3.502;2023-03-17T13:32:29;19.60;97.50
31799;DHT22;18374;51.136;3.502;2023-03-17T13:46:50;20.00;96.50
31799;DHT22;18374;51.136;3.502;2023-03-17T13:51:55;19.90;96.30
31799;DHT22;18374;51.136;3.502;2023-03-17T13:54:29;20.00;96.60
31799;DHT22;18374;51.136;3.502;2023-03-17T13:57:38;20.50;95.60
31799;DHT22;18374;51.136;3.502;2023-03-17T14:00:21;20.90;95.00
31799;DHT22;18374;51.136;3.502;2023-03-17T14:03:02;21.20;95.10
31799;DHT22;18374;51.136;3.502;2023-03-17T14:05:35;21.30;94.10
31799;DHT22;18374;51.136;3.502;2023-03-17T14:08:15;21.70;94.10
31799;DHT22;18374;51.136;3.502;2023-03-17T14:11:01;21.90;92.70
31799;DHT22;18374;51.136;3.502;2023-03-17T14:16:25;20.90;93.80
31799;DHT22;18374;51.136;3.502;2023-03-17T14:19:23;20.10;94.50
31799;DHT22;18374;51.136;3.502;2023-03-17T14:22:01;19.30;96.00
31799;DHT22;18374;51.136;3.502;2023-03-17T14:24:32;18.70;97.30
31799;DHT22;18374;51.136;3.502;2023-03-17T14:27:06;18.40;97.90
31799;DHT22;18374;51.136;3.502;2023-03-17T14:29:36;18.10;97.80
31799;DHT22;18374;51.136;3.502;2023-03-17T14:32:11;17.90;98.10
31799;DHT22;18374;51.136;3.502;2023-03-17T14:34:44;17.70;98.00
31799;DHT22;18374;51.136;3.502;2023-03-17T14:37:15;17.60;98.60
31799;DHT22;18374;51.136;3.502;2023-03-17T14:39:53;17.50;98.70
31799;DHT22;18374;51.136;3.502;2023-03-17T14:42:28;17.40;98.70
31799;DHT22;18374;51.136;3.502;2023-03-17T14:45:06;17.40;98.50
31799;DHT22;18374;51.136;3.502;2023-03-17T14:47:39;17.40;98.40
31799;DHT22;18374;51.136;3.502;2023-03-17T14:50:30;17.50;98.50
31799;DHT22;18374;51.136;3.502;2023-03-17T14:52:59;17.60;99.10
31799;DHT22;18374;51.136;3.502;2023-03-17T14:55:39;17.50;98.40
31799;DHT22;18374;51.136;3.502;2023-03-17T14:58:25;17.40;98.60
31799;DHT22;18374;51.136;3.502;2023-03-17T15:01:03;17.40;98.40
31799;DHT22;18374;51.136;3.502;2023-03-17T15:03:37;17.20;98.60
31799;DHT22;18374;51.136;3.502;2023-03-17T15:06:23;17.10;99.20
31799;DHT22;18374;51.136;3.502;2023-03-17T15:08:51;17.00;99.30
31799;DHT22;18374;51.136;3.502;2023-03-17T15:11:22;16.90;98.80
31799;DHT22;18374;51.136;3.502;2023-03-17T15:13:55;16.70;99.40
31799;DHT22;18374;51.136;3.502;2023-03-17T15:16:34;16.60;99.40
31799;DHT22;18374;51.136;3.502;2023-03-17T15:19:13;16.50;99.30
31799;DHT22;18374;51.136;3.502;2023-03-17T15:22:28;16.50;99.70
31799;DHT22;18374;51.136;3.502;2023-03-17T15:27:31;16.50;99.90
31799;DHT22;18374;51.136;3.502;2023-03-17T15:29:59;16.50;99.90
31799;DHT22;18374;51.136;3.502;2023-03-17T15:32:27;16.60;99.90
31799;DHT22;18374;51.136;3.502;2023-03-17T15:34:55;16.60;99.90
31799;DHT22;18374;51.136;3.502;2023-03-17T15:37:29;16.70;99.90
31799;DHT22;18374;51.136;3.502;2023-03-17T15:40:00;16.70;99.90
31799;DHT22;18374;51.136;3.502;2023-03-17T15:42:32;16.70;99.90
31799;DHT22;18374;51.136;3.502;2023-03-17T15:45:01;16.70;99.90
31799;DHT22;18374;51.136;3.502;2023-03-17T15:47:32;16.70;99.90
31799;DHT22;18374;51.136;3.502;2023-03-17T15:52:42;16.60;99.90
31799;DHT22;18374;51.136;3.502;2023-03-17T15:55:27;16.60;99.90
31799;DHT22;18374;51.136;3.502;2023-03-17T15:57:57;16.60;99.90
31799;DHT22;18374;51.136;3.502;2023-03-17T16:00:26;16.50;99.90
31799;DHT22;18374;51.136;3.502;2023-03-17T16:02:58;16.30;99.90
31799;DHT22;18374;51.136;3.502;2023-03-17T16:05:30;16.30;99.90
31799;DHT22;18374;51.136;3.502;2023-03-17T16:07:59;16.20;99.90
31799;DHT22;18374;51.136;3.502;2023-03-17T16:10:29;16.10;99.90
31799;DHT22;18374;51.136;3.502;2023-03-17T16:12:58;16.00;99.90
31799;DHT22;18374;51.136;3.502;2023-03-17T16:15:28;15.90;99.90
31799;DHT22;18374;51.136;3.502;2023-03-17T16:18:00;15.90;99.90
31799;DHT22;18374;51.136;3.502;2023-03-17T16:20:40;15.80;99.90
31799;DHT22;18374;51.136;3.502;2023-03-17T16:23:30;15.80;99.90
31799;DHT22;18374;51.136;3.502;2023-03-17T16:25:59;15.80;99.90
31799;DHT22;18374;51.136;3.502;2023-03-17T16:28:43;15.60;99.90
31799;DHT22;18374;51.136;3.502;2023-03-17T16:31:21;15.50;99.90
31799;DHT22;18374;51.136;3.502;2023-03-17T16:33:52;15.50;99.90
31799;DHT22;18374;51.136;3.502;2023-03-17T16:36:21;15.50;99.90
31799;DHT22;18374;51.136;3.502;2023-03-17T16:38:50;15.40;99.90
31799;DHT22;18374;51.136;3.502;2023-03-17T16:41:22;15.50;99.90
31799;DHT22;18374;51.136;3.502;2023-03-17T16:43:59;15.40;99.90
31799;DHT22;18374;51.136;3.502;2023-03-17T16:46:31;15.40;99.90
31799;DHT22;18374;51.136;3.502;2023-03-17T16:49:02;15.40;99.90
31799;DHT22;18374;51.136;3.502;2023-03-17T16:51:31;15.40;99.90
31799;DHT22;18374;51.136;3.502;2023-03-17T16:53:59;15.30;99.90
31799;DHT22;18374;51.136;3.502;2023-03-17T16:56:27;15.20;99.90
31799;DHT22;18374;51.136;3.502;2023-03-17T16:58:57;15.20;99.90
31799;DHT22;18374;51.136;3.502;2023-03-17T17:01:27;15.10;99.90
31799;DHT22;18374;51.136;3.502;2023-03-17T17:03:55;15.10;99.90
31799;DHT22;18374;51.136;3.502;2023-03-17T17:06:23;15.10;99.90
31799;DHT22;18374;51.136;3.502;2023-03-17T17:08:51;15.00;99.90
31799;DHT22;18374;51.136;3.502;2023-03-17T17:11:19;15.00;99.90
31799;DHT22;18374;51.136;3.502;2023-03-17T17:13:48;14.90;99.90
31799;DHT22;18374;51.136;3.502;2023-03-17T17:16:43;14.90;99.90
31799;DHT22;18374;51.136;3.502;2023-03-17T17:19:16;14.80;99.90
31799;DHT22;18374;51.136;3.502;2023-03-17T17:21:44;14.70;99.90
31799;DHT22;18374;51.136;3.502;2023-03-17T17:24:13;14.80;99.90
31799;DHT22;18374;51.136;3.502;2023-03-17T17:26:40;14.70;99.90
31799;DHT22;18374;51.136;3.502;2023-03-17T17:29:08;14.70;99.90
31799;DHT22;18374;51.136;3.502;2023-03-17T17:31:36;14.70;99.90
31799;DHT22;18374;51.136;3.502;2023-03-17T17:34:04;14.60;99.90
31799;DHT22;18374;51.136;3.502;2023-03-17T17:36:32;14.50;99.90
31799;DHT22;18374;51.136;3.502;2023-03-17T17:39:00;14.60;99.90
31799;DHT22;18374;51.136;3.502;2023-03-17T17:41:28;14.60;99.90
31799;DHT22;18374;51.136;3.502;2023-03-17T17:43:58;14.60;99.90
31799;DHT22;18374;51.136;3.502;2023-03-17T17:46:27;14.60;99.90
31799;DHT22;18374;51.136;3.502;2023-03-17T17:48:54;14.60;99.90
31799;DHT22;18374;51.136;3.502;2023-03-17T17:51:22;14.50;99.90
31799;DHT22;18374;51.136;3.502;2023-03-17T17:53:50;14.50;99.90
31799;DHT22;18374;51.136;3.502;2023-03-17T17:56:19;14.40;99.90
31799;DHT22;18374;51.136;3.502;2023-03-17T17:58:47;14.40;99.90
31799;DHT22;18374;51.136;3.502;2023-03-17T18:01:16;14.30;99.90
31799;DHT22;18374;51.136;3.502;2023-03-17T18:03:48;14.30;99.90
31799;DHT22;18374;51.136;3.502;2023-03-17T18:06:16;14.20;99.90
31799;DHT22;18374;51.136;3.502;2023-03-17T18:08:44;14.20;99.90
31799;DHT22;18374;51.136;3.502;2023-03-17T18:11:12;14.10;99.90
31799;DHT22;18374;51.136;3.502;2023-03-17T18:13:39;14.10;99.90
31799;DHT22;18374;51.136;3.502;2023-03-17T18:16:07;14.00;99.90